Home > Products > Valid Products > TAF

000
FTUS46 KMTR 262300
TAFSFO
TAF
KSFO 262326Z 2700/2806 36005KT P6SM FEW025 SCT250
     FM271100 15005KT P6SM SCT250
     FM272000 28007KT P6SM SCT250=



000
FTUS46 KMTR 262300
TAFSJC
TAF
KSJC 262326Z 2700/2724 00000KT P6SM FEW080
     FM270300 VRB03KT P6SM FEW200
     FM271900 30004KT P6SM SCT200=



000
FTUS46 KMTR 262300
TAFSNS
TAF
KSNS 262326Z 2700/2724 12007KT P6SM SKC
     FM270300 24004KT P6SM FEW250
     FM270800 09005KT P6SM SCT250
     FM272000 28008KT P6SM SCT200=



000
FTUS46 KMTR 262300
TAFMRY
TAF
KMRY 262326Z 2700/2724 28004KT P6SM SKC
     FM270300 11004KT P6SM FEW250
     FM271900 29004KT P6SM SCT200=



000
FTUS46 KMTR 262300
TAFOAK
TAF
KOAK 262326Z 2700/2806 26004KT P6SM SCT250
     FM270300 VRB03KT P6SM SCT250
     FM270900 10005KT P6SM SCT250
     FM272000 28007KT P6SM SCT250=



000
FTUS46 KMTR 262300
TAFSTS
TAF
KSTS 262326Z 2700/2724 18003KT P6SM BKN250
     FM270300 VRB03KT P6SM SKC
     FM271100 00000KT 2SM BR SCT002
     FM271200 00000KT 1/4SM FG VV002
     FM271700 00000KT 6SM BR FEW002 SCT200
     FM272000 19004KT P6SM SCT200=



000
FTUS46 KMTR 262100 AAA
TAFSFO
TAF AMD
KSFO 262100Z 2621/2724 03004KT P6SM FEW025
     FM262300 31004KT P6SM SCT250
     FM271100 15005KT P6SM SCT250
     FM272000 28007KT P6SM SCT250=



000
FTUS46 KMTR 261700
TAFSFO
TAF
KSFO 261720Z 2618/2724 15003KT P6SM FEW025 SCT200
     FM262000 09004KT P6SM SCT250
     FM262300 31004KT P6SM SCT250
     FM271100 15005KT P6SM SCT250
     FM272000 28007KT P6SM SCT250=



000
FTUS46 KMTR 261700
TAFSJC
TAF
KSJC 261720Z 2618/2718 VRB03KT P6SM FEW100
     FM262000 32005KT P6SM FEW100
     FM270300 VRB03KT P6SM FEW200=



000
FTUS46 KMTR 261700
TAFOAK
TAF
KOAK 261720Z 2618/2724 10006KT P6SM FEW250
     FM262000 26005KT P6SM FEW250
     FM270300 VRB03KT P6SM SCT250
     FM270900 10005KT P6SM SCT250
     FM272000 28007KT P6SM SCT250=



000
FTUS46 KMTR 261700
TAFMRY
TAF
KMRY 261720Z 2618/2718 VRB03KT P6SM SKC
     FM261900 29007KT P6SM FEW250
     FM270300 11004KT P6SM FEW250=



000
FTUS46 KMTR 261700
TAFSTS
TAF
KSTS 261720Z 2618/2718 VRB04KT P6SM SKC
     FM270300 VRB03KT P6SM SKC
     FM271100 00000KT 2SM BR SCT002
     FM271200 00000KT 1/4SM FG VV002
     FM271700 00000KT 6SM BR FEW002=



000
FTUS46 KMTR 261700
TAFSNS
TAF
KSNS 261720Z 2618/2718 12010KT P6SM SKC
     FM262000 27006KT P6SM FEW250
     FM270300 24004KT P6SM FEW250
     FM270800 09005KT P6SM SCT250=



000
FTUS46 KMTR 261500 AAA
TAFSFO
TAF AMD
KSFO 261502Z 2615/2718 15003KT P6SM FEW012 SCT200
     FM262000 09004KT P6SM SCT250
     FM270300 31004KT P6SM SCT250=



000
FTUS46 KMTR 261100
TAFMRY
TAF
KMRY 261139Z 2612/2712 10003KT P6SM SKC
     FM261800 29007KT P6SM FEW250
     FM270300 11004KT P6SM FEW250=



000
FTUS46 KMTR 261100
TAFSJC
TAF
KSJC 261139Z 2612/2712 VRB03KT P6SM SKC
     FM262000 32005KT P6SM FEW250
     FM270300 VRB03KT P6SM FEW250=



000
FTUS46 KMTR 261100
TAFSNS
TAF
KSNS 261139Z 2612/2712 12010KT P6SM SKC
     FM262000 27006KT P6SM FEW250
     FM270300 24004KT P6SM FEW250
     FM270800 09005KT P6SM SCT250=



000
FTUS46 KMTR 261100
TAFSFO
TAF
KSFO 261139Z 2612/2718 VRB03KT P6SM SKC
     FM262000 09004KT P6SM SCT250
     FM270300 31004KT P6SM SCT250=



000
FTUS46 KMTR 261100
TAFOAK
TAF
KOAK 261139Z 2612/2718 02006KT P6SM SKC
     FM262000 26005KT P6SM SCT250
     FM270300 VRB03KT P6SM SCT250
     FM270900 05005KT P6SM SCT250=



000
FTUS46 KMTR 261100
TAFSTS
TAF
KSTS 261139Z 2612/2712 00000KT 3SM BR FEW001
      TEMPO 2612/2616 1/2SM FG VV001
     FM261700 19004KT P6SM SKC
     FM270300 VRB03KT P6SM SKC=



000
FTUS46 KMTR 260500
TAFSTS
TAF
KSTS 260527Z 2606/2706 VRB03KT P6SM SKC
     FM261000 00000KT 2SM BR FEW001
      TEMPO 2612/2616 1/2SM FG VV001
     FM261700 19004KT P6SM SKC
     FM270300 VRB03KT P6SM SKC=



000
FTUS46 KMTR 260500
TAFSNS
TAF
KSNS 260527Z 2606/2706 VRB03KT P6SM SKC
     FM261000 12010KT P6SM SKC
     FM262000 27006KT P6SM FEW250
     FM270300 24004KT P6SM FEW250=



000
FTUS46 KMTR 260500
TAFSFO
TAF
KSFO 260527Z 2606/2712 VRB03KT P6SM SKC
     FM262000 09004KT P6SM SCT250
     FM270300 31004KT P6SM SCT250=



000
FTUS46 KMTR 260500
TAFSJC
TAF
KSJC 260527Z 2606/2706 VRB03KT P6SM SKC
     FM262000 32005KT P6SM FEW250
     FM270300 VRB03KT P6SM FEW250=



000
FTUS46 KMTR 260500
TAFOAK
TAF
KOAK 260527Z 2606/2712 02006KT P6SM SKC
     FM262000 26005KT P6SM SCT250
     FM270300 VRB03KT P6SM SCT250=



000
FTUS46 KMTR 260500
TAFMRY
TAF
KMRY 260527Z 2606/2706 10003KT P6SM SKC
     FM261800 29007KT P6SM FEW250
     FM270300 14004KT P6SM FEW250=



000
FTUS46 KMTR 260300 AAA
TAFSFO
TAF AMD
KSFO 260300Z 2603/2706 29005KT P6SM SCT200
     FM260400 VRB03KT P6SM SKC
     FM262000 09004KT P6SM SCT250
     FM270300 31004KT P6SM SCT250=



000
FTUS46 KMTR 252300
TAFSTS
TAF
KSTS 252323Z 2600/2624 VRB03KT P6SM SKC
     FM261000 00000KT 2SM BR FEW001
      TEMPO 2612/2616 1/2SM FG VV001
     FM261700 VRB03KT P6SM SKC=



000
FTUS46 KMTR 252300
TAFSNS
TAF
KSNS 252323Z 2600/2624 VRB03KT P6SM SKC
     FM261000 12010KT P6SM SKC
     FM262000 27006KT P6SM FEW250=



000
FTUS46 KMTR 252300
TAFOAK
TAF
KOAK 252323Z 2600/2706 23005KT P6SM SCT200
     FM260400 VRB03KT P6SM SKC
     FM262000 26005KT P6SM SCT250
     FM270300 VRB03KT P6SM SCT250=



000
FTUS46 KMTR 252300
TAFSFO
TAF
KSFO 252323Z 2600/2706 29005KT P6SM SCT200
     FM260400 VRB03KT P6SM SKC
     FM262000 09004KT P6SM SCT250
     FM270300 31004KT P6SM SCT250=



000
FTUS46 KMTR 252300
TAFMRY
TAF
KMRY 252323Z 2600/2624 31004KT P6SM SKC
     FM260300 10003KT P6SM SKC
     FM261800 29007KT P6SM FEW250=



000
FTUS46 KMTR 252300
TAFSJC
TAF
KSJC 252323Z 2600/2624 30004KT P6SM SCT200
     FM260400 VRB03KT P6SM SKC
     FM262000 32005KT P6SM FEW250=



000
FTUS46 KMTR 252100 AAA
TAFSFO
TAF AMD
KSFO 252105Z 2521/2624 VRB03KT P6SM SCT200
     FM252300 29007KT P6SM FEW200
     FM260400 VRB03KT P6SM SKC
     FM262000 09004KT P6SM SCT250=



000
FTUS46 KMTR 251700
TAFSFO
TAF
KSFO 251720Z 2518/2624 09004KT P6SM FEW200
     FM252000 29007KT P6SM FEW250
     FM260400 VRB03KT P6SM SKC
     FM262000 09004KT P6SM SCT250=



000
FTUS46 KMTR 251700
TAFSNS
TAF
KSNS 251720Z 2518/2618 10012KT P6SM SKC
     FM252000 VRB03KT P6SM SKC
     FM261000 12008KT P6SM SKC=



000
FTUS46 KMTR 251700
TAFMRY
TAF
KMRY 251720Z 2518/2618 09004KT P6SM SKC
     FM252100 31005KT P6SM SKC
     FM260300 10003KT P6SM SKC=



000
FTUS46 KMTR 251700
TAFSTS
TAF
KSTS 251720Z 2518/2618 00000KT P6SM SCT250
     FM252200 VRB03KT P6SM SKC
     FM261200 00000KT 2SM BR FEW001=



000
FTUS46 KMTR 251700
TAFOAK
TAF
KOAK 251720Z 2518/2624 VRB03KT P6SM FEW200
     FM252000 31007KT P6SM FEW250
     FM260400 VRB03KT P6SM SKC
     FM262000 26005KT P6SM SCT250=



000
FTUS46 KMTR 251700
TAFSJC
TAF
KSJC 251720Z 2518/2618 11003KT P6SM FEW200
     FM252100 35004KT P6SM FEW200
     FM260400 VRB03KT P6SM SKC=



000
FTUS46 KMTR 251500 AAA
TAFSFO
TAF AMD
KSFO 251526Z 2515/2618 00000KT P6SM FEW200
     FM252000 29007KT P6SM FEW250
     FM260400 VRB03KT P6SM FEW200=



000
FTUS46 KMTR 251100
TAFSJC
TAF
KSJC 251126Z 2512/2612 VRB03KT P6SM FEW100
     FM251800 30007KT P6SM FEW200
     FM260400 VRB03KT P6SM FEW200=



000
FTUS46 KMTR 251100
TAFSNS
TAF
KSNS 251126Z 2512/2612 11008KT P6SM FEW250
     FM251500 13011G18KT P6SM FEW250
     FM252000 VRB03KT P6SM FEW200
     FM260900 12006KT P6SM FEW200=



000
FTUS46 KMTR 251100
TAFSTS
TAF
KSTS 251126Z 2512/2612 VRB03KT P6SM SKC
      TEMPO 2512/2515 2SM BR=



000
FTUS46 KMTR 251100
TAFMRY
TAF
KMRY 251126Z 2512/2612 11004KT P6SM FEW200
     FM251900 30005KT P6SM FEW200
     FM260300 11004KT P6SM FEW200=



000
FTUS46 KMTR 251100
TAFOAK
TAF
KOAK 251126Z 2512/2618 VRB03KT P6SM FEW250
     FM252000 31007KT P6SM FEW250
     FM260400 VRB03KT P6SM FEW200=



000
FTUS46 KMTR 251100
TAFSFO
TAF
KSFO 251126Z 2512/2618 VRB03KT P6SM FEW200
     FM252000 29007KT P6SM FEW250
     FM260400 VRB03KT P6SM FEW200=



000
FTUS46 KMTR 250900 AAA
TAFSFO
TAF AMD
KSFO 250911Z 2509/2612 VRB03KT P6SM FEW200
     FM252000 29007KT P6SM FEW250
     FM260400 VRB03KT P6SM FEW200=



000
FTUS46 KMTR 250500
TAFSNS
TAF
KSNS 250533Z 2506/2606 VRB03KT P6SM FEW250
     FM251000 11008KT P6SM FEW250
     FM251800 13011G18KT P6SM FEW250=



000
FTUS46 KMTR 250500
TAFMRY
TAF
KMRY 250533Z 2506/2606 11004KT P6SM FEW200
     FM251900 30005KT P6SM FEW200=



000
FTUS46 KMTR 250500
TAFSFO
TAF
KSFO 250533Z 2506/2612 VRB03KT P6SM FEW200
     FM252000 29007KT P6SM FEW250=



000
FTUS46 KMTR 250500
TAFOAK
TAF
KOAK 250533Z 2506/2612 VRB03KT P6SM FEW250
     FM252000 31007KT P6SM FEW250=



000
FTUS46 KMTR 250500
TAFSTS
TAF
KSTS 250533Z 2506/2606 VRB03KT P6SM SKC=



000
FTUS46 KMTR 250500
TAFSJC
TAF
KSJC 250533Z 2506/2606 VRB03KT P6SM FEW100
     FM251800 30007KT P6SM FEW200=



000
FTUS46 KMTR 250200 AAA
TAFSFO
TAF AMD
KSFO 250256Z 2503/2606 27006KT P6SM FEW200
     FM250600 VRB03KT P6SM FEW200
     FM252000 29007KT P6SM FEW250=



000
FTUS46 KMTR 242300
TAFMRY
TAF
KMRY 242323Z 2500/2524 30007KT P6SM SKC
     FM250300 11004KT P6SM FEW200
     FM251900 30005KT P6SM FEW200=



000
FTUS46 KMTR 242300
TAFSJC
TAF
KSJC 242323Z 2500/2524 30007KT P6SM FEW100
     FM250400 VRB03KT P6SM FEW100
     FM251800 30007KT P6SM FEW200=



000
FTUS46 KMTR 242300
TAFOAK
TAF
KOAK 242323Z 2500/2606 25004KT P6SM FEW250
     FM250300 VRB03KT P6SM FEW250
     FM252000 31007KT P6SM FEW250=



000
FTUS46 KMTR 242300
TAFSTS
TAF
KSTS 242323Z 2500/2524 VRB03KT P6SM SKC=



000
FTUS46 KMTR 242300
TAFSFO
TAF
KSFO 242323Z 2500/2606 00000KT P6SM FEW200
     FM250400 VRB03KT P6SM FEW200
     FM252000 29007KT P6SM FEW250=



000
FTUS46 KMTR 242300
TAFSNS
TAF
KSNS 242323Z 2500/2524 00000KT P6SM SKC
     FM250300 29007KT P6SM FEW250
     FM250600 VRB03KT P6SM FEW250
     FM251000 11008KT P6SM FEW250
     FM251800 13011G18KT P6SM FEW250=



000
FTUS46 KMTR 242100 AAA
TAFSFO
TAF AMD
KSFO 242100Z 2421/2524 04003KT P6SM FEW200
     FM250400 VRB03KT P6SM FEW200
     FM250800 16003KT P6SM FEW250
     FM252000 29007KT P6SM FEW250=



000
FTUS46 KMTR 241700
TAFSNS
TAF
KSNS 241720Z 2418/2518 11007KT P6SM SKC
     FM250300 29007KT P6SM FEW250
     FM250600 VRB03KT P6SM FEW250
     FM251000 11008KT P6SM FEW250=



000
FTUS46 KMTR 241700
TAFOAK
TAF
KOAK 241720Z 2418/2524 00000KT P6SM FEW250
     FM241900 28008KT P6SM FEW250
     FM250300 VRB03KT P6SM FEW250
     FM250900 11003KT P6SM FEW250
     FM252000 31007KT P6SM FEW250=



000
FTUS46 KMTR 241700
TAFMRY
TAF
KMRY 241720Z 2418/2518 09005KT P6SM SKC
     FM242100 30008KT P6SM FEW250
     FM250300 11004KT P6SM FEW250=



000
FTUS46 KMTR 241700
TAFSTS
TAF
KSTS 241720Z 2418/2518 35005KT P6SM SCT250
     FM250400 VRB03KT P6SM SKC=



000
FTUS46 KMTR 241700
TAFSFO
TAF
KSFO 241720Z 2418/2524 01003KT P6SM FEW200
     FM242100 28010KT P6SM FEW250
     FM250400 VRB03KT P6SM FEW250
     FM250800 16003KT P6SM FEW250
     FM252000 29007KT P6SM FEW250=



000
FTUS46 KMTR 241700
TAFSJC
TAF
KSJC 241720Z 2418/2518 00000KT P6SM FEW100 SCT140
     FM241900 29008KT P6SM SCT200
     FM250400 VRB03KT P6SM SCT250=



000
FTUS46 KMTR 241500 AAA
TAFSFO
TAF AMD
KSFO 241523Z 2415/2518 00000KT P6SM SCT200
     FM241800 01004KT P6SM FEW250
     FM242100 28010KT P6SM FEW250
     FM250400 VRB03KT P6SM FEW250=



000
FTUS46 KMTR 241100
TAFSNS
TAF
KSNS 241135Z 2412/2512 VRB03KT P6SM SCT250
     FM241800 32011KT P6SM FEW250
     FM250300 29007KT P6SM FEW250
     FM250600 VRB03KT P6SM FEW250=



000
FTUS46 KMTR 241100
TAFMRY
TAF
KMRY 241135Z 2412/2512 14004KT P6SM FEW250
     FM242100 30008KT P6SM FEW250
     FM250300 11004KT P6SM FEW250=



000
FTUS46 KMTR 241100
TAFOAK
TAF
KOAK 241135Z 2412/2518 VRB03KT P6SM FEW250
     FM241900 28008KT P6SM FEW250
     FM250300 VRB03KT P6SM FEW250=



000
FTUS46 KMTR 241100
TAFSTS
TAF
KSTS 241135Z 2412/2512 32004KT P6SM SCT250=



000
FTUS46 KMTR 241100
TAFSFO
TAF
KSFO 241135Z 2412/2518 VRB03KT P6SM FEW250
     FM241800 01004KT P6SM FEW250
     FM242100 28010KT P6SM FEW250
     FM250400 VRB03KT P6SM FEW250=



000
FTUS46 KMTR 241100
TAFSJC
TAF
KSJC 241135Z 2412/2512 26004KT P6SM SCT250
     FM241900 29008KT P6SM SCT250
     FM250400 VRB03KT P6SM SCT250=



000
FTUS46 KMTR 240900 AAA
TAFSFO
TAF AMD
KSFO 240900Z 2409/2512 VRB03KT P6SM FEW250
     FM241800 01004KT P6SM FEW250
     FM242200 VRB03KT P6SM FEW250=



000
FTUS46 KMTR 240500
TAFMRY
TAF
KMRY 240520Z 2406/2506 14004KT P6SM FEW250
     FM242100 30008KT P6SM FEW250
     FM250300 24004KT P6SM FEW250=



000
FTUS46 KMTR 240500
TAFSNS
TAF
KSNS 240520Z 2406/2506 VRB03KT P6SM SCT250
     FM241800 32011KT P6SM FEW250
     FM250300 29007KT P6SM FEW250=



000
FTUS46 KMTR 240500
TAFOAK
TAF
KOAK 240520Z 2406/2512 VRB03KT P6SM FEW250
     FM241900 28008KT P6SM FEW250
     FM250300 VRB03KT P6SM FEW250=



000
FTUS46 KMTR 240500
TAFSFO
TAF
KSFO 240520Z 2406/2512 29006KT P6SM SCT250
     FM240900 VRB03KT P6SM FEW250
     FM241800 01004KT P6SM FEW250
     FM242200 VRB03KT P6SM FEW250=



000
FTUS46 KMTR 240500
TAFSJC
TAF
KSJC 240520Z 2406/2506 31005KT P6SM SCT250
     FM241200 26004KT P6SM SCT250
     FM241900 29008KT P6SM SCT250=



000
FTUS46 KMTR 240500
TAFSTS
TAF
KSTS 240520Z 2406/2506 32004KT P6SM SCT250=



000
FTUS46 KMTR 240300 AAA
TAFSFO
TAF AMD
KSFO 240346Z 2404/2506 29006KT P6SM SCT250
     FM240900 VRB03KT P6SM FEW250
     FM241800 01004KT P6SM FEW250
     FM242200 VRB03KT P6SM FEW250=



000
FTUS46 KMTR 240300 AAA
TAFSFO
TAF AMD
KSFO 240346Z 2404/2506 29006KT P6SM SCT250
     FM240900 VRB03KT P6SM FEW250
     FM241800 01004KT P6SM FEW250
     FM242200 VRB03KT P6SM FEW250=



    US Dept of Commerce
    National Oceanic and Atmospheric Administration
    National Weather Service
    1325 East West Highway
    Silver Spring, MD 20910
    Page Author: NWS Internet Services Team
Disclaimer
Information Quality
Credits
Glossary
Privacy Policy
Freedom of Information Act (FOIA)
About Us
Career Opportunities